Time;durP1;ratioP1;P1;durP2;ratioP2;P2;SDS_P1;SDS_P2;PMS_P1;PMS_P2;Temp;Humidity;BMP_temperature;BMP_pressure;BME280_temperature;BME280_humidity;BME280_pressure;Samples;Min_cycle;Max_cycle;Signal;HPM_P1;HPM_P2
2022/12/31 00:00:33;;;;;;;1.48;0.88;;;;;;;11.50;76.52;100274.59;5102511;28;20075;-70
2022/12/31 00:03:01;;;;;;;0.75;0.70;;;;;;;11.49;76.37;100273.78;5102057;28;20044;-70
2022/12/31 00:05:31;;;;;;;1.75;0.70;;;;;;;11.50;76.56;100269.22;5103581;28;20048;-69
2022/12/31 00:08:00;;;;;;;1.02;0.70;;;;;;;11.52;76.62;100261.72;5100062;28;20503;-70
2022/12/31 00:10:28;;;;;;;0.77;0.70;;;;;;;11.52;76.56;100259.84;5096825;28;20055;-70
2022/12/31 00:12:56;;;;;;;2.20;0.80;;;;;;;11.51;76.50;100268.16;5094900;28;20124;-70
2022/12/31 00:15:24;;;;;;;1.38;0.98;;;;;;;11.50;76.53;100256.56;5096070;28;20072;-70
2022/12/31 00:17:52;;;;;;;0.80;0.80;;;;;;;11.51;76.51;100249.31;5095491;28;20036;-71
2022/12/31 00:20:20;;;;;;;1.55;0.77;;;;;;;11.51;76.47;100258.19;5096187;28;20056;-70
2022/12/31 00:22:49;;;;;;;0.88;0.75;;;;;;;11.51;76.49;100249.31;5093121;28;20152;-71
2022/12/31 00:25:17;;;;;;;1.67;1.00;;;;;;;11.51;76.29;100260.06;5102841;28;20048;-71
2022/12/31 00:27:45;;;;;;;0.95;0.73;;;;;;;11.51;76.33;100250.13;5102242;28;20536;-71
2022/12/31 00:30:14;;;;;;;0.70;0.70;;;;;;;11.52;76.67;100253.63;5099865;28;20048;-71
2022/12/31 00:32:42;;;;;;;0.70;0.68;;;;;;;11.52;76.64;100248.25;5101570;28;20079;-71
2022/12/31 00:35:10;;;;;;;1.33;0.77;;;;;;;11.53;76.62;100236.44;5100885;28;20048;-71
2022/12/31 00:37:38;;;;;;;0.70;0.70;;;;;;;11.54;76.61;100244.25;5097084;28;20036;-71
2022/12/31 00:40:09;;;;;;;1.08;0.70;;;;;;;11.54;76.49;100240.75;5096759;28;20116;-72
2022/12/31 00:42:37;;;;;;;1.15;0.60;;;;;;;11.54;76.62;100227.28;5098630;28;20558;-71
2022/12/31 00:45:05;;;;;;;1.02;0.80;;;;;;;11.54;76.39;100232.69;5098812;28;20124;-71
2022/12/31 00:47:33;;;;;;;1.38;0.70;;;;;;;11.55;76.40;100226.25;5102058;28;20047;-71
2022/12/31 00:50:01;;;;;;;0.90;0.80;;;;;;;11.55;76.52;100239.69;5098713;28;20086;-72
2022/12/31 00:52:29;;;;;;;2.10;0.85;;;;;;;11.55;76.59;100237.81;5098526;28;20056;-71
2022/12/31 00:54:57;;;;;;;2.03;0.88;;;;;;;11.55;76.59;100247.78;5100185;28;20083;-72
2022/12/31 00:57:26;;;;;;;1.00;0.90;;;;;;;11.57;76.96;100245.66;5097306;28;20059;-72
2022/12/31 00:59:54;;;;;;;1.27;0.93;;;;;;;11.57;76.83;100226.81;5095413;28;20511;-69
2022/12/31 01:02:21;;;;;;;0.95;0.75;;;;;;;11.57;76.65;100229.50;5100146;28;20115;-68
2022/12/31 01:04:49;;;;;;;4.03;0.95;;;;;;;11.57;76.94;100227.63;5098209;28;20052;-71
2022/12/31 01:07:17;;;;;;;1.42;0.80;;;;;;;11.57;76.99;100235.69;5102997;28;20468;-71
2022/12/31 01:09:45;;;;;;;1.60;1.05;;;;;;;11.58;77.11;100245.41;5097870;28;20062;-72
2022/12/31 01:12:13;;;;;;;1.17;0.90;;;;;;;11.59;77.05;100227.38;5100112;28;20045;-71
2022/12/31 01:14:42;;;;;;;1.00;0.70;;;;;;;11.60;77.36;100234.41;5099004;28;20131;-72
2022/12/31 01:17:12;;;;;;;1.90;0.70;;;;;;;11.60;77.58;100229.03;5101331;28;20166;-72
2022/12/31 01:19:39;;;;;;;2.22;0.65;;;;;;;11.61;77.43;100220.69;5103932;28;20044;-72
2022/12/31 01:22:07;;;;;;;1.00;0.70;;;;;;;11.61;77.87;100227.97;5097803;28;20044;-72
2022/12/31 01:24:35;;;;;;;0.57;0.52;;;;;;;11.60;77.91;100216.38;5090420;28;20060;-72
2022/12/31 01:27:03;;;;;;;1.00;0.50;;;;;;;11.61;77.93;100227.97;5098176;28;20040;-72
2022/12/31 01:29:31;;;;;;;3.17;0.70;;;;;;;11.61;77.66;100218.00;5098770;28;20052;-72
2022/12/31 01:32:00;;;;;;;0.95;0.57;;;;;;;11.61;78.25;100225.25;5102504;28;20048;-71
2022/12/31 01:34:28;;;;;;;0.80;0.55;;;;;;;11.60;77.87;100224.44;5100792;28;20547;-71
2022/12/31 01:36:55;;;;;;;1.00;0.55;;;;;;;11.61;78.25;100239.53;5100688;28;20047;-72
2022/12/31 01:39:23;;;;;;;0.75;0.50;;;;;;;11.61;78.35;100225.25;5096810;28;20067;-71
2022/12/31 01:41:51;;;;;;;0.77;0.47;;;;;;;11.61;78.29;100244.94;5089906;28;20059;-71
2022/12/31 01:44:48;;;;;;;0.85;0.50;;;;;;;11.60;78.82;100240.59;5093024;28;20078;-71
2022/12/31 01:47:20;;;;;;;0.30;0.30;;;;;;;11.62;78.53;100256.50;5094677;28;20045;-71
2022/12/31 01:49:53;;;;;;;1.85;0.57;;;;;;;11.62;79.13;100246.56;5102386;28;20055;-71
2022/12/31 01:52:26;;;;;;;1.02;0.52;;;;;;;11.63;78.73;100268.91;5106294;28;20062;-72
2022/12/31 01:55:00;;;;;;;0.95;0.57;;;;;;;11.62;78.92;100295.00;5104209;28;20110;-73
2022/12/31 01:57:28;;;;;;;0.60;0.50;;;;;;;11.63;78.86;100310.09;5099748;28;20040;-72
2022/12/31 01:59:56;;;;;;;0.98;0.50;;;;;;;11.63;78.88;100288.56;5102852;28;20500;-72
2022/12/31 02:02:26;;;;;;;0.30;0.30;;;;;;;11.59;78.82;100265.06;5105039;28;20059;-71
2022/12/31 02:04:57;;;;;;;1.33;0.40;;;;;;;11.64;78.63;100265.97;5104093;28;20040;-70
2022/12/31 02:07:25;;;;;;;0.43;0.40;;;;;;;11.62;78.72;100259.19;5104224;28;20083;-69
2022/12/31 02:09:54;;;;;;;0.20;0.20;;;;;;;11.55;78.69;100251.28;5100621;28;20059;-70
2022/12/31 02:12:22;;;;;;;0.95;0.50;;;;;;;11.63;78.60;100271.59;5102335;28;20047;-69
2022/12/31 02:14:53;;;;;;;1.15;0.47;;;;;;;11.63;78.85;100275.09;5100980;28;20064;-70
2022/12/31 02:17:32;;;;;;;0.75;0.40;;;;;;;11.64;78.85;100279.44;5104136;28;20071;-70
2022/12/31 02:20:19;;;;;;;0.57;0.40;;;;;;;11.65;78.55;100299.09;5105762;28;20282;-71
2022/12/31 02:23:06;;;;;;;0.77;0.40;;;;;;;11.65;78.54;100307.97;5102729;28;20108;-71
2022/12/31 02:25:51;;;;;;;0.68;0.20;;;;;;;11.65;78.67;100307.97;5100784;28;20048;-63
2022/12/31 02:28:37;;;;;;;1.95;0.32;;;;;;;11.65;78.56;100310.66;5102965;28;20198;-71
2022/12/31 02:31:11;;;;;;;0.27;0.27;;;;;;;11.66;78.42;100308.78;5100349;28;20048;-71
2022/12/31 02:33:44;;;;;;;0.30;0.30;;;;;;;11.65;78.21;100304.47;5105080;28;20044;-70
2022/12/31 02:36:18;;;;;;;0.32;0.32;;;;;;;11.65;78.36;100313.34;5108285;28;20048;-71
2022/12/31 02:38:48;;;;;;;1.25;0.30;;;;;;;11.66;78.19;100319.56;5097913;28;20044;-68
2022/12/31 02:44:00;;;;;;;0.20;0.20;;;;;;;11.67;78.49;100329.28;5107797;28;20071;-70
2022/12/31 02:46:36;;;;;;;0.30;0.30;;;;;;;11.67;78.18;100329.28;5099644;28;20540;-69
2022/12/31 02:49:12;;;;;;;0.98;0.40;;;;;;;11.67;78.20;100327.41;5101773;28;20036;-71
2022/12/31 02:51:50;;;;;;;0.40;0.30;;;;;;;11.67;78.38;100327.41;5106486;28;20040;-70
2022/12/31 02:54:30;;;;;;;0.25;0.25;;;;;;;11.68;78.13;100320.13;5103092;28;20069;-69
2022/12/31 02:57:06;;;;;;;0.30;0.30;;;;;;;11.67;78.32;100316.63;5104530;28;20040;-71
2022/12/31 03:02:30;;;;;;;0.30;0.30;;;;;;;11.67;78.21;100313.94;5104366;28;20305;-71
2022/12/31 03:05:01;;;;;;;0.45;0.32;;;;;;;11.68;78.08;100295.91;5109775;28;20401;-70
2022/12/31 03:07:30;;;;;;;0.28;0.28;;;;;;;11.68;77.65;100293.22;5100176;28;20058;-70
2022/12/31 03:09:59;;;;;;;0.35;0.20;;;;;;;11.68;77.78;100293.22;5104739;28;20067;-71
2022/12/31 03:12:47;;;;;;;0.47;0.28;;;;;;;11.68;77.94;100290.53;5095046;28;20101;-70
2022/12/31 03:15:21;;;;;;;0.30;0.30;;;;;;;11.68;77.78;100293.22;5089877;28;20052;-64
2022/12/31 03:17:53;;;;;;;0.75;0.52;;;;;;;11.67;77.88;100296.97;5092946;28;20141;-70
2022/12/31 03:23:13;;;;;;;0.80;0.30;;;;;;;11.67;77.81;100275.44;5096437;28;20076;-71
2022/12/31 03:25:40;;;;;;;0.35;0.35;;;;;;;11.66;77.60;100282.69;5098861;28;20051;-71
2022/12/31 03:28:09;;;;;;;0.70;0.30;;;;;;;11.67;77.85;100281.63;5101167;28;20384;-71
2022/12/31 03:30:39;;;;;;;0.40;0.32;;;;;;;11.66;77.77;100273.81;5096553;28;20052;-71
2022/12/31 03:33:08;;;;;;;1.95;0.30;;;;;;;11.59;77.63;100267.75;5101034;28;20359;-70
2022/12/31 03:35:37;;;;;;;1.35;0.30;;;;;;;11.67;77.83;100278.13;5101265;28;20115;-70
2022/12/31 03:38:06;;;;;;;2.58;0.30;;;;;;;11.67;77.66;100267.34;5092808;28;20055;-66
2022/12/31 03:40:38;;;;;;;0.98;0.30;;;;;;;11.67;77.49;100256.59;5099311;28;20072;-70
2022/12/31 03:43:06;;;;;;;0.38;0.30;;;;;;;11.60;77.60;100245.16;5096857;28;20107;-70
2022/12/31 03:45:34;;;;;;;0.20;0.20;;;;;;;11.67;77.93;100253.91;5098429;28;20048;-65
2022/12/31 03:48:03;;;;;;;0.30;0.30;;;;;;;11.67;77.43;100251.22;5099218;28;20072;-70
2022/12/31 03:50:33;;;;;;;0.30;0.30;;;;;;;11.66;77.46;100255.78;5103526;28;20135;-70
2022/12/31 03:53:00;;;;;;;0.20;0.20;;;;;;;11.66;77.61;100242.31;5101690;28;20048;-71
2022/12/31 03:55:28;;;;;;;0.40;0.30;;;;;;;11.67;77.49;100243.94;5098933;28;20074;-71
2022/12/31 03:57:56;;;;;;;0.20;0.20;;;;;;;11.66;77.57;100245.00;5100946;28;20397;-70
2022/12/31 04:00:24;;;;;;;0.20;0.20;;;;;;;11.67;77.90;100233.19;5091404;28;20064;-69
2022/12/31 04:02:52;;;;;;;0.20;0.20;;;;;;;11.69;77.90;100238.31;5096330;28;20048;-70
2022/12/31 04:05:21;;;;;;;0.20;0.20;;;;;;;11.70;77.54;100248.03;5098133;28;20058;-71
2022/12/31 04:07:50;;;;;;;0.43;0.40;;;;;;;11.69;77.71;100236.44;5098369;28;20051;-70
2022/12/31 04:10:19;;;;;;;0.30;0.30;;;;;;;11.71;77.38;100244.28;5100111;28;20052;-70
2022/12/31 04:12:48;;;;;;;0.32;0.30;;;;;;;11.70;77.44;100229.19;5091620;28;20062;-70
2022/12/31 04:15:18;;;;;;;0.22;0.22;;;;;;;11.71;77.82;100225.44;5102219;28;20044;-70
2022/12/31 04:17:47;;;;;;;0.35;0.30;;;;;;;11.73;77.70;100213.38;5099245;28;20040;-70
2022/12/31 04:20:15;;;;;;;0.40;0.38;;;;;;;11.76;77.81;100222.81;5099663;28;20131;-70
2022/12/31 04:22:43;;;;;;;0.30;0.30;;;;;;;11.76;77.76;100232.78;5102039;28;20083;-70
2022/12/31 04:25:13;;;;;;;0.57;0.32;;;;;;;11.77;77.65;100224.50;5102300;28;20047;-70
2022/12/31 04:27:43;;;;;;;0.20;0.20;;;;;;;11.78;77.92;100223.44;5103846;28;20420;-67
2022/12/31 04:30:12;;;;;;;0.45;0.40;;;;;;;11.79;77.94;100218.84;5100241;28;20048;-69
2022/12/31 04:32:40;;;;;;;1.85;0.57;;;;;;;11.86;77.39;100220.31;5102813;28;20109;-70
2022/12/31 04:35:09;;;;;;;0.50;0.38;;;;;;;11.88;77.64;100209.31;5100362;28;20089;-70
2022/12/31 04:37:37;;;;;;;0.30;0.30;;;;;;;11.87;77.80;100205.81;5098222;28;20273;-71
2022/12/31 04:40:05;;;;;;;1.98;0.50;;;;;;;11.85;78.15;100225.97;5098495;28;20040;-71
2022/12/31 04:42:35;;;;;;;1.25;0.60;;;;;;;11.85;77.79;100220.56;5101706;28;20058;-71
2022/12/31 04:45:03;;;;;;;1.17;0.50;;;;;;;11.86;78.07;100220.31;5102278;28;20052;-71
2022/12/31 04:47:31;;;;;;;1.45;0.40;;;;;;;11.89;78.21;100224.41;5102982;28;20103;-71
2022/12/31 04:49:59;;;;;;;0.82;0.43;;;;;;;11.91;77.94;100206.94;5101217;28;20047;-68
2022/12/31 04:52:27;;;;;;;1.85;0.50;;;;;;;11.94;78.32;100225.31;5098667;28;20121;-71
2022/12/31 04:54:55;;;;;;;1.13;0.52;;;;;;;11.91;78.08;100220.41;5099346;28;20044;-70
2022/12/31 04:57:22;;;;;;;1.75;0.40;;;;;;;11.92;78.23;100250.84;5099600;28;20048;-71
2022/12/31 04:59:51;;;;;;;1.50;0.70;;;;;;;11.99;77.99;100248.81;5100807;28;20112;-71
2022/12/31 05:02:19;;;;;;;1.40;0.50;;;;;;;11.95;78.20;100250.34;5098975;28;20135;-70
2022/12/31 05:04:47;;;;;;;2.72;0.63;;;;;;;12.03;77.90;100269.59;5100884;28;20473;-71
2022/12/31 05:07:15;;;;;;;0.85;0.38;;;;;;;12.04;77.97;100271.25;5101320;28;20056;-68
2022/12/31 05:09:43;;;;;;;1.15;0.55;;;;;;;12.00;78.24;100262.03;5096343;28;20040;-71
2022/12/31 05:12:11;;;;;;;0.98;0.50;;;;;;;11.99;78.33;100275.72;5102024;28;20054;-71
2022/12/31 05:14:39;;;;;;;1.77;0.68;;;;;;;11.99;78.34;100270.34;5102261;28;20060;-71
2022/12/31 05:17:08;;;;;;;1.02;0.68;;;;;;;12.00;78.44;100267.41;5095921;28;20051;-71
2022/12/31 05:19:36;;;;;;;2.45;1.02;;;;;;;12.08;78.52;100259.97;5103910;28;20040;-71
2022/12/31 05:24:54;;;;;;;1.15;0.40;;;;;;;12.05;78.08;100286.34;5085448;28;20485;-71
2022/12/31 05:27:22;;;;;;;1.38;0.50;;;;;;;12.04;78.38;100286.59;5107289;28;20079;-71
2022/12/31 05:29:51;;;;;;;1.48;0.63;;;;;;;11.99;78.41;100271.16;5100126;28;20051;-71
2022/12/31 05:32:20;;;;;;;0.80;0.55;;;;;;;12.05;78.44;100274.75;5105606;28;20083;-71
2022/12/31 05:34:48;;;;;;;2.38;0.93;;;;;;;12.05;78.60;100290.91;5107849;28;20048;-71
2022/12/31 05:37:15;;;;;;;3.03;0.70;;;;;;;12.22;78.11;100283.59;5104869;28;20480;-71
2022/12/31 05:39:43;;;;;;;1.88;0.50;;;;;;;12.14;78.11;100300.19;5101788;28;20071;-71
2022/12/31 05:42:11;;;;;;;3.85;0.70;;;;;;;12.11;78.27;100299.88;5105539;28;20135;-68
2022/12/31 05:44:39;;;;;;;1.35;0.55;;;;;;;12.09;78.63;100302.81;5104488;28;20115;-71
2022/12/31 05:47:07;;;;;;;3.65;0.77;;;;;;;12.10;78.70;100300.94;5102010;28;20083;-71
2022/12/31 05:49:36;;;;;;;0.35;0.35;;;;;;;12.15;78.24;100299.13;4749778;28;9999986;-68
2022/12/31 05:52:04;;;;;;;1.88;0.55;;;;;;;12.13;78.34;100295.88;5097902;28;20052;-68
2022/12/31 05:54:32;;;;;;;2.95;0.70;;;;;;;12.12;78.62;100283.47;5084954;28;21177;-72
2022/12/31 05:57:00;;;;;;;1.55;0.57;;;;;;;12.14;78.63;100299.38;5095795;28;20463;-69
2022/12/31 05:59:28;;;;;;;0.73;0.50;;;;;;;12.13;78.81;100303.16;5095633;28;20044;-69
2022/12/31 06:01:56;;;;;;;0.65;0.30;;;;;;;12.28;78.11;100300.66;5108150;28;20040;-68
2022/12/31 06:04:24;;;;;;;1.05;0.50;;;;;;;12.26;78.32;100308.19;5100731;28;20587;-71
2022/12/31 06:06:53;;;;;;;1.40;0.65;;;;;;;12.47;78.63;100293.94;5100276;28;20112;-69
2022/12/31 06:09:22;;;;;;;1.33;0.40;;;;;;;12.43;78.22;100308.16;5099259;28;20048;-64
2022/12/31 06:11:50;;;;;;;0.73;0.47;;;;;;;12.52;78.23;100306.69;5095725;28;20568;-70
2022/12/31 06:14:17;;;;;;;2.65;0.80;;;;;;;12.63;77.42;100313.84;5093350;28;20468;-70
2022/12/31 06:16:45;;;;;;;1.67;0.60;;;;;;;12.73;77.04;100319.38;5100047;28;20043;-71
2022/12/31 06:19:13;;;;;;;1.63;0.50;;;;;;;12.86;76.96;100329.00;5103559;28;20124;-71
2022/12/31 06:21:41;;;;;;;0.95;0.47;;;;;;;13.04;76.22;100332.22;5097230;28;20046;-71
2022/12/31 06:24:10;;;;;;;1.98;0.50;;;;;;;13.19;75.50;100326.22;5098712;28;20119;-71
2022/12/31 06:26:38;;;;;;;0.90;0.40;;;;;;;13.32;75.13;100333.09;5098331;28;20140;-70
2022/12/31 06:29:06;;;;;;;2.30;0.70;;;;;;;13.46;74.76;100330.84;5100253;28;20106;-70
2022/12/31 06:31:33;;;;;;;3.63;0.70;;;;;;;13.54;74.30;100342.00;5100943;28;20062;-71
2022/12/31 06:34:01;;;;;;;1.83;0.60;;;;;;;13.62;73.60;100340.72;5100482;28;20395;-71
2022/12/31 06:36:29;;;;;;;0.93;0.82;;;;;;;13.51;73.83;100344.38;5099595;28;20131;-70
2022/12/31 06:38:57;;;;;;;3.47;0.60;;;;;;;13.37;74.54;100343.16;5098810;28;20111;-70
2022/12/31 06:41:26;;;;;;;1.73;0.90;;;;;;;13.25;74.85;100333.31;5108143;28;20487;-68
2022/12/31 06:43:54;;;;;;;1.63;0.40;;;;;;;13.15;75.13;100337.72;5100076;28;20076;-67
2022/12/31 06:46:22;;;;;;;1.00;0.40;;;;;;;13.08;75.60;100350.59;5100790;28;20045;-70
2022/12/31 06:48:50;;;;;;;2.17;0.80;;;;;;;13.03;75.94;100343.25;5097107;28;20059;-69
2022/12/31 06:51:20;;;;;;;1.73;0.50;;;;;;;13.10;75.83;100340.38;5099312;28;20087;-69
2022/12/31 06:53:50;;;;;;;1.33;0.60;;;;;;;13.07;75.67;100346.25;5094574;28;20111;-69
2022/12/31 06:56:21;;;;;;;1.15;0.70;;;;;;;12.96;76.25;100340.72;5096967;28;20043;-69
2022/12/31 06:58:56;;;;;;;2.42;0.60;;;;;;;12.93;76.22;100330.44;5091540;28;20048;-65
2022/12/31 07:01:36;;;;;;;1.75;0.60;;;;;;;13.52;75.16;100338.75;5100814;28;20048;-69
2022/12/31 07:04:27;;;;;;;1.48;0.75;;;;;;;13.35;74.66;100352.31;5098341;28;20052;-69
2022/12/31 07:07:03;;;;;;;3.03;0.88;;;;;;;13.19;75.30;100345.09;5095589;28;20047;-70
2022/12/31 07:09:36;;;;;;;;;;;;;;;13.04;76.32;100355.66;5096033;28;20068;-71
2022/12/31 07:12:12;;;;;;;3.83;0.88;;;;;;;13.07;76.18;100367.84;5092611;28;19923;-71
2022/12/31 07:14:46;;;;;;;3.58;0.60;;;;;;;13.24;76.34;100364.06;5095869;28;20054;-70
2022/12/31 07:17:29;;;;;;;2.22;0.70;;;;;;;13.01;76.28;100375.06;5095905;28;20044;-66
2022/12/31 07:20:02;;;;;;;3.35;0.85;;;;;;;12.94;77.48;100358.22;5095221;28;20036;-71
2022/12/31 07:22:31;;;;;;;2.90;0.60;;;;;;;13.16;77.08;100360.94;5091578;28;20055;-69
2022/12/31 07:24:59;;;;;;;5.18;0.60;;;;;;;13.22;76.41;100357.28;5097264;28;20051;-70
2022/12/31 07:27:47;;;;;;;3.70;1.05;;;;;;;12.99;76.57;100356.41;5098193;28;20151;-69
2022/12/31 07:30:19;;;;;;;2.88;0.80;;;;;;;13.23;76.19;100362.41;5096569;28;20100;-68
2022/12/31 07:33:12;;;;;;;2.88;0.80;;;;;;;13.08;76.41;100370.28;5095678;28;20048;-67
2022/12/31 07:35:49;;;;;;;2.70;1.00;;;;;;;12.97;76.76;100371.22;5081866;28;20044;-70
2022/12/31 07:38:24;;;;;;;2.35;0.57;;;;;;;13.10;76.70;100368.16;5091418;28;20056;-63
2022/12/31 07:41:03;;;;;;;3.22;1.02;;;;;;;13.11;77.03;100369.78;5085828;28;20135;-65
2022/12/31 07:43:44;;;;;;;2.72;0.93;;;;;;;13.00;76.85;100359.94;5094287;28;20048;-72
2022/12/31 07:46:19;;;;;;;1.63;0.60;;;;;;;12.89;77.74;100352.78;5098816;28;20108;-70
2022/12/31 07:48:47;;;;;;;2.40;0.80;;;;;;;12.94;78.04;100372.53;5094228;28;20146;-68
2022/12/31 07:51:16;;;;;;;2.38;0.88;;;;;;;12.85;77.44;100365.13;5094470;28;20044;-70
2022/12/31 07:53:44;;;;;;;8.60;1.13;;;;;;;12.79;78.22;100361.53;5099871;28;20134;-67
2022/12/31 07:56:13;;;;;;;6.82;1.02;;;;;;;12.76;78.38;100353.94;5099488;28;20104;-68
2022/12/31 07:58:57;;;;;;;2.50;1.15;;;;;;;12.74;78.50;100358.75;5100380;28;20078;-70
2022/12/31 08:01:35;;;;;;;0.93;0.50;;;;;;;12.65;78.14;100342.19;5090420;28;20136;-72
2022/12/31 08:04:09;;;;;;;8.40;0.85;;;;;;;12.75;78.60;100362.28;5094758;28;20058;-69
2022/12/31 08:06:45;;;;;;;2.47;0.93;;;;;;;12.76;78.68;100377.38;5098483;28;20158;-68
2022/12/31 08:09:28;;;;;;;1.20;0.60;;;;;;;12.75;78.17;100394.63;5098245;28;20044;-72
2022/12/31 08:11:57;;;;;;;2.90;1.50;;;;;;;12.84;78.43;100385.06;5098356;28;20040;-70
2022/12/31 08:14:27;;;;;;;5.75;0.80;;;;;;;12.81;77.97;100404.44;5100480;28;20040;-70
2022/12/31 08:16:57;;;;;;;7.10;1.52;;;;;;;12.81;78.06;100380.16;5095533;28;20063;-70
2022/12/31 08:19:29;;;;;;;2.08;0.75;;;;;;;12.85;77.97;100401.00;5106818;28;20047;-68
2022/12/31 08:22:10;;;;;;;4.35;1.13;;;;;;;12.80;78.51;100410.88;5102873;28;20086;-71
2022/12/31 08:24:51;;;;;;;4.15;0.85;;;;;;;12.84;78.01;100428.22;5102097;28;20535;-69
2022/12/31 08:27:27;;;;;;;2.45;0.70;;;;;;;12.88;78.11;100427.47;5099669;28;20143;-68
2022/12/31 08:30:05;;;;;;;3.03;0.75;;;;;;;12.80;78.19;100444.06;5102996;28;20115;-69
2022/12/31 08:32:42;;;;;;;3.80;1.05;;;;;;;12.81;78.19;100458.38;5096398;28;20048;-66
2022/12/31 08:35:24;;;;;;;2.45;0.70;;;;;;;12.80;78.52;100457.53;5100628;28;20075;-65
2022/12/31 08:37:59;;;;;;;2.40;0.52;;;;;;;12.80;78.81;100478.31;5100100;28;20068;-64
2022/12/31 08:40:35;;;;;;;4.28;1.00;;;;;;;12.79;78.75;100463.19;5101238;28;20051;-69
2022/12/31 08:43:16;;;;;;;3.45;1.05;;;;;;;12.80;78.55;100478.31;5101896;28;20048;-70
2022/12/31 08:45:48;;;;;;;3.47;1.40;;;;;;;12.72;79.04;100466.06;5093714;28;20045;-68
2022/12/31 08:48:29;;;;;;;2.63;0.90;;;;;;;12.87;78.43;100493.25;5101605;28;20036;-67
2022/12/31 08:50:58;;;;;;;2.17;1.08;;;;;;;12.86;78.45;100494.31;5101115;28;20091;-69
2022/12/31 08:53:26;;;;;;;2.33;0.80;;;;;;;12.87;78.37;100492.44;5100633;28;20044;-68
2022/12/31 08:56:00;;;;;;;1.88;0.70;;;;;;;12.87;78.32;100500.53;5097632;28;20058;-67
2022/12/31 08:58:39;;;;;;;2.63;0.60;;;;;;;12.90;78.95;100514.34;5102231;28;20044;-67
2022/12/31 09:01:08;;;;;;;1.63;0.47;;;;;;;12.90;78.34;100522.44;5098226;28;20104;-69
2022/12/31 09:04:01;;;;;;;2.70;0.73;;;;;;;12.88;78.51;100524.56;5102081;28;20044;-69
2022/12/31 09:06:33;;;;;;;2.80;0.90;;;;;;;12.88;78.91;100532.66;5102352;28;20511;-73
2022/12/31 09:09:11;;;;;;;2.85;0.90;;;;;;;12.90;79.02;100535.09;5110580;28;20064;-69
2022/12/31 09:11:50;;;;;;;3.67;0.95;;;;;;;12.78;78.88;100516.31;5102052;28;20091;-69
2022/12/31 09:14:36;;;;;;;4.10;0.90;;;;;;;12.87;79.05;100531.03;5101799;28;20048;-71
2022/12/31 09:17:09;;;;;;;1.88;0.90;;;;;;;12.88;78.77;100543.44;5101927;28;20052;-70
2022/12/31 09:19:38;;;;;;;5.22;1.08;;;;;;;12.90;78.99;100556.69;5099590;28;20074;-72
2022/12/31 09:22:06;;;;;;;5.43;0.80;;;;;;;12.88;79.17;100558.81;5098409;28;20056;-71
2022/12/31 09:24:34;;;;;;;2.00;0.77;;;;;;;12.87;78.64;100549.91;5099855;28;20047;-71
2022/12/31 09:27:11;;;;;;;1.27;0.60;;;;;;;12.93;78.93;100559.72;5097566;28;20056;-65
2022/12/31 09:29:50;;;;;;;4.50;1.00;;;;;;;12.90;79.04;100575.56;5089635;28;20045;-71
2022/12/31 09:32:25;;;;;;;3.83;1.48;;;;;;;12.88;78.98;100583.91;5093452;28;20164;-70
2022/12/31 09:35:06;;;;;;;3.17;0.93;;;;;;;12.93;78.87;100565.09;5095122;28;20044;-67
2022/12/31 09:37:42;;;;;;;3.80;1.10;;;;;;;12.93;78.85;100577.78;5095810;28;20044;-74
2022/12/31 09:40:49;;;;;;;4.20;1.00;;;;;;;12.94;78.83;100590.19;5094133;28;20522;-73
2022/12/31 09:43:49;;;;;;;3.97;1.65;;;;;;;12.95;79.21;100572.94;5099767;28;20052;-69
2022/12/31 09:47:12;;;;;;;3.20;1.00;;;;;;;12.97;78.98;100597.81;5101286;28;20076;-71
2022/12/31 09:50:26;;;;;;;2.05;0.90;;;;;;;13.00;79.32;100600.84;5061570;28;20191;-70
2022/12/31 09:53:08;;;;;;;5.30;1.10;;;;;;;12.99;79.07;100610.00;5097707;28;20108;-71
2022/12/31 09:55:39;;;;;;;4.40;1.08;;;;;;;13.00;78.99;100592.75;5099790;28;20115;-70
2022/12/31 09:58:23;;;;;;;7.65;1.40;;;;;;;13.04;78.84;100590.38;5099901;28;20047;-72
2022/12/31 10:00:56;;;;;;;3.80;1.35;;;;;;;13.04;78.82;100601.16;5099108;28;20070;-72
2022/12/31 10:03:42;;;;;;;4.38;1.02;;;;;;;13.02;78.89;100611.38;5101115;28;20051;-71
2022/12/31 10:06:27;;;;;;;2.85;0.95;;;;;;;13.02;78.93;100604.09;5094742;28;20092;-69
2022/12/31 10:09:13;;;;;;;6.53;1.35;;;;;;;13.11;78.73;100607.22;5098303;28;20059;-72
2022/12/31 10:12:02;;;;;;;4.03;1.38;;;;;;;13.10;79.12;100623.66;5098410;28;20086;-72
2022/12/31 10:14:45;;;;;;;5.28;1.23;;;;;;;13.12;78.78;100621.53;5101380;28;20060;-71
2022/12/31 10:17:29;;;;;;;2.85;1.20;;;;;;;13.11;78.92;100620.72;5100282;28;20071;-72
2022/12/31 10:20:15;;;;;;;3.03;1.10;;;;;;;13.15;79.04;100599.47;5098566;28;20111;-70
2022/12/31 10:23:05;;;;;;;5.90;2.05;;;;;;;13.18;78.62;100597.13;5102512;28;20051;-73
2022/12/31 10:25:47;;;;;;;3.58;1.20;;;;;;;13.17;78.44;100587.38;5100426;28;20158;-70
2022/12/31 10:28:30;;;;;;;4.13;1.65;;;;;;;13.15;78.70;100591.38;5092497;28;20103;-72
2022/12/31 10:31:12;;;;;;;2.92;1.20;;;;;;;13.15;78.97;100569.78;5099494;28;20048;-73
2022/12/31 10:33:44;;;;;;;4.13;1.40;;;;;;;13.08;78.84;100555.63;5091355;28;20196;-72
2022/12/31 10:36:20;;;;;;;5.60;1.20;;;;;;;13.14;79.00;100571.66;5097833;28;20111;-74
2022/12/31 10:39:02;;;;;;;3.38;1.27;;;;;;;13.14;78.92;100568.97;5096810;28;20115;-72
2022/12/31 10:42:04;;;;;;;3.53;1.08;;;;;;;13.18;78.84;100580.09;5098282;28;20079;-71
2022/12/31 10:45:05;;;;;;;3.55;1.20;;;;;;;13.22;78.56;100594.75;5096314;28;20139;-73
2022/12/31 10:48:20;;;;;;;3.03;1.17;;;;;;;13.23;78.83;100596.38;5093730;28;20059;-72
2022/12/31 10:51:14;;;;;;;3.80;1.05;;;;;;;13.22;78.32;100602.84;5035853;28;20045;-70
2022/12/31 10:54:17;;;;;;;4.65;1.85;;;;;;;13.26;78.25;100607.50;5036507;28;20053;-68
2022/12/31 10:57:06;;;;;;;5.07;1.73;;;;;;;13.29;78.50;100598.91;5039957;28;20049;-73
2022/12/31 11:00:06;;;;;;;3.67;1.65;;;;;;;13.31;78.45;100602.19;5038281;28;20120;-71
2022/12/31 11:03:27;;;;;;;4.40;1.27;;;;;;;13.26;78.43;100596.72;5038153;28;20044;-73
2022/12/31 11:06:43;;;;;;;6.38;1.73;;;;;;;13.23;78.57;100585.59;5038557;28;20274;-74
2022/12/31 11:09:54;;;;;;;5.60;1.83;;;;;;;13.30;78.03;100607.84;5025390;28;20050;-72
2022/12/31 11:12:43;;;;;;;5.80;1.90;;;;;;;13.27;78.37;100600.22;5034087;28;20076;-68
2022/12/31 11:15:30;;;;;;;5.68;1.58;;;;;;;13.26;78.51;100615.59;5034146;28;20064;-69
2022/12/31 11:18:10;;;;;;;4.55;1.30;;;;;;;13.26;78.32;100610.19;5038109;28;20111;-71
2022/12/31 11:20:55;;;;;;;2.63;1.02;;;;;;;13.25;78.29;100616.66;5038020;28;20130;-71
2022/12/31 11:23:36;;;;;;;4.35;1.83;;;;;;;13.27;78.30;100619.13;5033759;28;20088;-68
2022/12/31 11:26:13;;;;;;;4.85;1.45;;;;;;;13.33;78.43;100600.06;5094789;28;20043;-69
2022/12/31 11:28:54;;;;;;;2.03;1.10;;;;;;;13.38;77.76;100612.81;5097627;28;20171;-71
2022/12/31 11:31:38;;;;;;;5.65;1.60;;;;;;;13.40;78.35;100618.78;5098009;28;20044;-68
2022/12/31 11:34:25;;;;;;;4.97;1.63;;;;;;;13.40;78.29;100618.78;5089107;28;20496;-66
2022/12/31 11:37:02;;;;;;;;;;;;;;;13.43;78.22;100623.69;5113616;28;20119;-68
2022/12/31 11:39:44;;;;;;;3.97;1.33;;;;;;;13.52;77.95;100618.69;5101315;28;19974;-68
2022/12/31 11:42:24;;;;;;;3.47;1.90;;;;;;;13.46;77.65;100628.59;5097760;28;20052;-70
2022/12/31 11:44:58;;;;;;;7.47;2.10;;;;;;;13.44;78.39;100628.03;5101333;28;20140;-69
2022/12/31 11:47:51;;;;;;;6.78;1.90;;;;;;;13.46;78.04;100623.22;5104804;28;20090;-71
2022/12/31 11:50:44;;;;;;;8.23;1.80;;;;;;;13.51;77.52;100606.25;5094984;28;20052;-74
2022/12/31 11:53:32;;;;;;;8.45;2.25;;;;;;;13.49;77.59;100606.50;5099576;28;20050;-72
2022/12/31 11:56:11;;;;;;;2.13;1.20;;;;;;;13.49;77.76;100611.09;5101245;28;20052;-74
2022/12/31 11:58:45;;;;;;;4.20;1.60;;;;;;;13.49;77.74;100617.31;5102304;28;20063;-73
2022/12/31 12:01:18;;;;;;;5.07;1.40;;;;;;;13.53;77.93;100614.94;5091784;28;20056;-74
2022/12/31 12:03:46;;;;;;;6.80;1.73;;;;;;;13.53;77.49;100609.53;5104646;28;20048;-73
2022/12/31 12:06:17;;;;;;;4.93;1.20;;;;;;;13.58;77.54;100633.91;5099192;28;20055;-73
2022/12/31 12:08:45;;;;;;;4.43;1.45;;;;;;;13.54;78.15;100633.59;5105156;28;20055;-74
2022/12/31 12:11:20;;;;;;;4.55;1.70;;;;;;;13.56;77.97;100652.25;5099494;28;20092;-73